createdAt,value
2018-09-19T00:01:51.320Z,99.90
2018-09-19T00:04:19.665Z,99.90
2018-09-19T00:06:47.948Z,99.90
2018-09-19T00:09:16.222Z,99.90
2018-09-19T00:11:44.510Z,99.90
2018-09-19T00:14:12.786Z,99.90
2018-09-19T00:16:41.088Z,99.90
2018-09-19T00:19:09.382Z,99.90
2018-09-19T00:21:37.698Z,99.90
2018-09-19T00:24:06.004Z,99.90
2018-09-19T00:26:34.297Z,99.90
2018-09-19T00:29:02.685Z,99.90
2018-09-19T00:31:30.855Z,99.90
2018-09-19T00:33:59.158Z,99.90
2018-09-19T00:36:27.437Z,99.90
2018-09-19T00:38:55.733Z,99.90
2018-09-19T00:41:24.012Z,99.90
2018-09-19T00:43:52.837Z,99.90
2018-09-19T00:46:21.129Z,99.90
2018-09-19T00:48:49.432Z,99.90
2018-09-19T00:51:17.737Z,99.90
2018-09-19T00:53:46.058Z,99.90
2018-09-19T00:56:14.298Z,99.90
2018-09-19T00:58:42.598Z,99.90
2018-09-19T01:01:10.896Z,99.90
2018-09-19T01:03:39.183Z,99.90
2018-09-19T01:06:07.533Z,99.90
2018-09-19T01:08:35.800Z,99.90
2018-09-19T01:11:04.089Z,99.90
2018-09-19T01:13:32.364Z,99.90
2018-09-19T01:16:00.671Z,99.90
2018-09-19T01:18:28.968Z,99.90
2018-09-19T01:20:57.244Z,99.90
2018-09-19T01:23:25.520Z,99.90
2018-09-19T01:25:53.801Z,99.90
2018-09-19T01:28:22.225Z,99.90
2018-09-19T01:30:50.512Z,99.90
2018-09-19T01:33:18.798Z,99.90
2018-09-19T01:35:47.092Z,99.90
2018-09-19T01:38:15.377Z,99.90
2018-09-19T01:40:43.663Z,99.90
2018-09-19T01:43:11.949Z,99.90
2018-09-19T01:45:40.254Z,99.90
2018-09-19T01:48:08.553Z,99.90
2018-09-19T01:50:36.860Z,99.90
2018-09-19T01:53:05.170Z,99.90
2018-09-19T01:55:33.467Z,99.90
2018-09-19T01:58:01.756Z,99.90
2018-09-19T02:00:30.032Z,99.90
2018-09-19T02:02:58.288Z,99.90
2018-09-19T02:05:26.592Z,99.90
2018-09-19T02:07:54.861Z,99.90
2018-09-19T02:10:23.246Z,99.90
2018-09-19T02:12:51.521Z,99.90
2018-09-19T02:15:19.796Z,99.90
2018-09-19T02:17:48.086Z,99.90
2018-09-19T02:20:16.373Z,99.90
2018-09-19T02:22:44.656Z,99.90
2018-09-19T02:25:12.930Z,99.90
2018-09-19T02:27:41.200Z,99.90
2018-09-19T02:30:09.489Z,99.90
2018-09-19T02:32:37.781Z,99.90
2018-09-19T02:35:06.071Z,99.90
2018-09-19T02:37:34.356Z,99.90
2018-09-19T02:40:02.652Z,99.90
2018-09-19T02:42:30.916Z,99.90
2018-09-19T02:44:59.177Z,99.90
2018-09-19T02:47:27.469Z,99.90
2018-09-19T02:49:55.766Z,99.90
2018-09-19T02:52:24.051Z,99.90
2018-09-19T02:54:52.353Z,99.90
2018-09-19T02:57:20.633Z,99.90
2018-09-19T02:59:48.903Z,99.90
2018-09-19T03:02:17.179Z,99.90
2018-09-19T03:04:45.503Z,99.90
2018-09-19T03:07:13.717Z,99.90
2018-09-19T03:09:41.996Z,99.90
2018-09-19T03:12:10.302Z,99.90
2018-09-19T03:14:38.559Z,99.90
2018-09-19T03:17:06.870Z,99.90
2018-09-19T03:19:35.127Z,99.90
2018-09-19T03:22:03.401Z,99.90
2018-09-19T03:24:31.684Z,99.90
2018-09-19T03:26:59.954Z,99.90
2018-09-19T03:29:28.237Z,99.90
2018-09-19T03:31:56.524Z,99.90
2018-09-19T03:34:24.793Z,99.90
2018-09-19T03:36:53.075Z,99.90
2018-09-19T03:39:21.357Z,99.90
2018-09-19T03:41:49.640Z,99.90
2018-09-19T03:44:17.922Z,99.90
2018-09-19T03:46:46.208Z,99.90
2018-09-19T03:49:14.488Z,99.90
2018-09-19T03:51:42.764Z,99.90
2018-09-19T03:54:11.047Z,99.90
2018-09-19T03:56:39.326Z,99.90
2018-09-19T03:59:07.734Z,99.90
2018-09-19T04:01:35.988Z,99.90
2018-09-19T04:04:04.284Z,99.90
2018-09-19T04:06:32.560Z,99.90
2018-09-19T04:09:00.847Z,99.90
2018-09-19T04:11:29.133Z,99.90
2018-09-19T04:13:57.406Z,99.90
2018-09-19T04:16:25.700Z,99.90
2018-09-19T04:18:53.988Z,99.90
2018-09-19T04:21:22.281Z,99.90
2018-09-19T04:23:50.577Z,99.90
2018-09-19T04:26:18.886Z,99.90
2018-09-19T04:28:47.166Z,99.90
2018-09-19T04:31:15.436Z,99.90
2018-09-19T04:33:43.788Z,99.90
2018-09-19T04:36:12.067Z,99.90
2018-09-19T04:38:40.350Z,99.90
2018-09-19T04:41:08.635Z,99.90
2018-09-19T04:43:36.923Z,99.90
2018-09-19T04:46:05.222Z,99.90
2018-09-19T04:48:33.519Z,99.90
2018-09-19T04:51:01.777Z,99.90
2018-09-19T04:53:30.070Z,99.90
2018-09-19T04:55:58.345Z,99.90
2018-09-19T04:58:26.654Z,99.90
2018-09-19T05:00:54.964Z,99.90
2018-09-19T05:03:23.244Z,99.90
2018-09-19T05:05:51.599Z,99.90
2018-09-19T05:08:19.854Z,99.90
2018-09-19T05:10:48.148Z,99.90
2018-09-19T05:13:16.420Z,99.90
2018-09-19T05:15:44.708Z,99.90
2018-09-19T05:18:12.984Z,99.90
2018-09-19T05:20:41.271Z,99.90
2018-09-19T05:23:09.569Z,99.90
2018-09-19T05:25:37.846Z,99.90
2018-09-19T05:28:06.129Z,99.90
2018-09-19T05:30:34.396Z,99.90
2018-09-19T05:33:02.688Z,99.90
2018-09-19T05:35:30.986Z,99.90
2018-09-19T05:37:59.266Z,99.90
2018-09-19T05:40:27.550Z,99.90
2018-09-19T05:42:55.816Z,99.90
2018-09-19T05:45:24.104Z,99.90
2018-09-19T05:47:52.385Z,99.90
2018-09-19T05:50:20.672Z,99.90
2018-09-19T05:52:48.936Z,99.90
2018-09-19T05:55:17.218Z,99.90
2018-09-19T05:57:45.529Z,99.90
2018-09-19T06:00:13.801Z,99.90
2018-09-19T06:02:42.073Z,99.90
2018-09-19T06:05:10.397Z,99.90
2018-09-19T06:07:38.659Z,99.90
2018-09-19T06:10:06.969Z,99.90
2018-09-19T06:12:35.258Z,99.90
2018-09-19T06:15:03.582Z,99.90
2018-09-19T06:17:31.892Z,99.90
2018-09-19T06:20:00.164Z,99.90
2018-09-19T06:22:28.449Z,99.90
2018-09-19T06:24:56.724Z,99.90
2018-09-19T06:27:25.008Z,99.90
2018-09-19T06:29:53.285Z,99.90
2018-09-19T06:32:21.566Z,99.90
2018-09-19T06:34:49.829Z,99.90
2018-09-19T06:37:18.105Z,99.90
2018-09-19T06:39:46.384Z,99.90
2018-09-19T06:42:14.668Z,99.90
2018-09-19T06:44:42.953Z,99.90
2018-09-19T06:47:11.230Z,99.90
2018-09-19T06:49:39.573Z,99.90
2018-09-19T06:52:07.851Z,99.90
2018-09-19T06:54:36.086Z,99.90
2018-09-19T06:57:04.334Z,99.90
2018-09-19T06:59:32.701Z,99.90
2018-09-19T07:02:00.913Z,99.90
2018-09-19T07:04:29.196Z,99.90
2018-09-19T07:06:57.484Z,99.90
2018-09-19T07:09:25.750Z,99.90
2018-09-19T07:11:54.029Z,99.90
2018-09-19T07:14:22.289Z,99.90
2018-09-19T07:16:50.572Z,99.90
2018-09-19T07:19:18.848Z,99.90
2018-09-19T07:21:47.131Z,99.90
2018-09-19T07:24:15.535Z,99.90
2018-09-19T07:26:43.838Z,99.90
2018-09-19T07:29:12.175Z,99.90
2018-09-19T07:31:40.417Z,99.90
2018-09-19T07:34:08.716Z,99.90
2018-09-19T07:36:36.984Z,99.90
2018-09-19T07:39:08.334Z,99.90
2018-09-19T07:41:36.628Z,99.90
2018-09-19T07:44:04.924Z,99.90
2018-09-19T07:46:33.216Z,99.90
2018-09-19T07:49:01.460Z,99.90
2018-09-19T07:51:29.859Z,99.90
2018-09-19T07:53:58.141Z,99.90
2018-09-19T07:56:26.412Z,99.90
2018-09-19T07:58:54.688Z,99.90
2018-09-19T08:01:23.083Z,99.90
2018-09-19T08:03:51.258Z,99.90
2018-09-19T08:06:19.529Z,99.90
2018-09-19T08:08:47.812Z,99.90
2018-09-19T08:11:16.107Z,99.90
2018-09-19T08:13:44.382Z,99.90
2018-09-19T08:16:12.684Z,99.90
2018-09-19T08:18:40.949Z,99.90
2018-09-19T08:21:09.232Z,99.90
2018-09-19T08:23:37.512Z,99.90
2018-09-19T08:26:05.819Z,99.90
2018-09-19T08:28:34.111Z,99.90
2018-09-19T08:31:02.381Z,99.90
2018-09-19T08:33:30.656Z,99.80
2018-09-19T08:35:58.933Z,99.60
2018-09-19T08:38:27.209Z,99.80
2018-09-19T08:40:55.487Z,99.90
2018-09-19T08:43:23.764Z,99.10
2018-09-19T08:45:52.073Z,98.40
2018-09-19T08:48:20.519Z,99.20
2018-09-19T08:50:48.876Z,99.00
2018-09-19T08:53:17.181Z,98.30
2018-09-19T08:55:45.466Z,99.40
2018-09-19T08:58:13.733Z,97.00
2018-09-19T09:00:42.026Z,97.10
2018-09-19T09:03:10.313Z,96.50
2018-09-19T09:05:38.595Z,97.10
2018-09-19T09:08:07.959Z,97.40
2018-09-19T09:10:36.296Z,95.90
2018-09-19T09:13:04.576Z,96.00
2018-09-19T09:15:32.859Z,95.40
2018-09-19T09:18:01.141Z,94.80
2018-09-19T09:20:29.494Z,95.70
2018-09-19T09:22:57.705Z,95.60
2018-09-19T09:25:26.018Z,95.50
2018-09-19T09:27:54.294Z,95.60
2018-09-19T09:30:23.358Z,95.80
2018-09-19T09:32:51.636Z,96.10
2018-09-19T09:35:19.920Z,96.30
2018-09-19T09:37:48.344Z,96.20
2018-09-19T09:40:16.653Z,94.90
2018-09-19T09:42:44.925Z,94.50
2018-09-19T09:45:13.192Z,95.50
2018-09-19T09:47:41.492Z,93.90
2018-09-19T09:50:09.817Z,93.70
2018-09-19T09:52:38.048Z,94.30
2018-09-19T09:55:06.442Z,93.20
2018-09-19T09:57:34.692Z,91.70
2018-09-19T10:00:02.989Z,92.40
2018-09-19T10:02:31.281Z,92.30
2018-09-19T10:04:59.560Z,91.90
2018-09-19T10:07:27.829Z,91.30
2018-09-19T10:09:56.113Z,91.90
2018-09-19T10:12:24.422Z,91.90
2018-09-19T10:14:52.738Z,92.60
2018-09-19T10:17:21.020Z,92.80
2018-09-19T10:19:49.300Z,92.70
2018-09-19T10:22:17.592Z,90.70
2018-09-19T10:24:45.885Z,91.20
2018-09-19T10:27:14.156Z,91.10
2018-09-19T10:29:42.538Z,90.00
2018-09-19T10:32:10.736Z,90.70
2018-09-19T10:34:39.020Z,90.30
2018-09-19T10:37:07.567Z,90.10
2018-09-19T10:39:35.834Z,93.50
2018-09-19T10:42:04.141Z,94.20
2018-09-19T10:44:32.417Z,94.70
2018-09-19T10:47:00.702Z,95.20
2018-09-19T10:49:29.003Z,95.20
2018-09-19T10:51:57.284Z,95.70
2018-09-19T10:54:25.749Z,94.90
2018-09-19T10:56:54.086Z,95.50
2018-09-19T10:59:22.313Z,95.90
2018-09-19T11:01:50.579Z,95.80
2018-09-19T11:04:18.864Z,96.80
2018-09-19T11:06:47.157Z,97.10
2018-09-19T11:09:15.448Z,96.80
2018-09-19T11:11:44.584Z,96.70
2018-09-19T11:14:12.880Z,97.10
2018-09-19T11:16:41.149Z,97.00
2018-09-19T11:19:09.455Z,96.20
2018-09-19T11:21:37.808Z,96.10
2018-09-19T11:24:06.594Z,96.00
2018-09-19T11:26:34.918Z,96.50
2018-09-19T11:29:03.165Z,96.10
2018-09-19T11:31:31.493Z,97.10
2018-09-19T11:33:59.797Z,96.20
2018-09-19T11:36:28.084Z,96.10
2018-09-19T11:38:56.361Z,95.90
2018-09-19T11:41:24.640Z,95.50
2018-09-19T11:43:53.052Z,95.60
2018-09-19T11:46:21.341Z,95.10
2018-09-19T11:48:49.673Z,95.90
2018-09-19T11:51:17.893Z,96.10
2018-09-19T11:53:46.181Z,96.40
2018-09-19T11:56:14.481Z,95.70
2018-09-19T11:58:42.760Z,95.20
2018-09-19T12:01:11.072Z,95.30
2018-09-19T12:03:39.360Z,95.40
2018-09-19T12:06:07.648Z,94.70
2018-09-19T12:08:35.934Z,94.40
2018-09-19T12:11:04.235Z,93.90
2018-09-19T12:13:32.518Z,94.40
2018-09-19T12:16:00.793Z,93.90
2018-09-19T12:18:29.072Z,94.30
2018-09-19T12:20:57.373Z,93.40
2018-09-19T12:23:25.644Z,93.60
2018-09-19T12:25:53.940Z,93.00
2018-09-19T12:28:22.221Z,93.30
2018-09-19T12:30:50.513Z,93.50
2018-09-19T12:33:18.849Z,93.30
2018-09-19T12:35:47.116Z,94.20
2018-09-19T12:38:15.429Z,93.10
2018-09-19T12:40:43.696Z,92.90
2018-09-19T12:43:11.972Z,92.10
2018-09-19T12:45:40.245Z,92.00
2018-09-19T12:48:08.528Z,91.70
2018-09-19T12:50:36.813Z,91.60
2018-09-19T12:53:05.117Z,91.30
2018-09-19T12:55:33.397Z,91.80
2018-09-19T12:58:01.717Z,92.70
2018-09-19T13:00:29.993Z,91.20
2018-09-19T13:02:58.293Z,90.20
2018-09-19T13:05:26.597Z,90.80
2018-09-19T13:07:54.874Z,90.80
2018-09-19T13:10:23.166Z,91.10
2018-09-19T13:12:51.459Z,91.10
2018-09-19T13:15:19.740Z,92.00
2018-09-19T13:17:48.029Z,90.60
2018-09-19T13:20:16.334Z,90.90
2018-09-19T13:22:44.638Z,90.00
2018-09-19T13:25:12.936Z,89.90
2018-09-19T13:27:41.231Z,89.90
2018-09-19T13:30:09.521Z,90.00
2018-09-19T13:32:37.813Z,91.10
2018-09-19T13:35:06.108Z,90.90
2018-09-19T13:37:34.397Z,90.50
2018-09-19T13:40:02.701Z,90.00
2018-09-19T13:42:30.980Z,90.90
2018-09-19T13:44:59.280Z,85.40
2018-09-19T13:47:27.627Z,85.60
2018-09-19T13:49:58.814Z,88.10
2018-09-19T13:52:27.097Z,86.40
2018-09-19T13:54:55.377Z,88.40
2018-09-19T13:57:23.657Z,88.90
2018-09-19T13:59:51.949Z,85.70
2018-09-19T14:02:20.284Z,83.90
2018-09-19T14:04:48.572Z,86.60
2018-09-19T14:07:16.852Z,83.90
2018-09-19T14:09:45.124Z,84.60
2018-09-19T14:12:13.453Z,85.00
2018-09-19T14:14:41.689Z,83.20
2018-09-19T14:17:09.973Z,85.30
2018-09-19T14:19:38.279Z,85.10
2018-09-19T14:22:06.589Z,87.60
2018-09-19T14:24:34.883Z,86.50
2018-09-19T14:27:03.136Z,86.20
2018-09-19T14:29:31.457Z,87.60
2018-09-19T14:31:59.751Z,88.40
2018-09-19T14:34:28.071Z,88.10
2018-09-19T14:36:56.368Z,88.30
2018-09-19T14:39:24.673Z,89.00
2018-09-19T14:41:52.966Z,88.50
2018-09-19T14:44:21.251Z,89.70
2018-09-19T14:46:49.561Z,87.50
2018-09-19T14:49:17.839Z,88.50
2018-09-19T14:51:46.139Z,90.70
2018-09-19T14:54:14.446Z,88.90
2018-09-19T14:56:42.698Z,85.40
2018-09-19T14:59:10.983Z,84.70
2018-09-19T15:01:39.265Z,84.80
2018-09-19T15:04:07.562Z,85.90
2018-09-19T15:06:35.841Z,85.10
2018-09-19T15:09:06.066Z,84.30
2018-09-19T15:11:34.352Z,84.50
2018-09-19T15:14:02.641Z,84.50
2018-09-19T15:16:30.920Z,84.70
2018-09-19T15:18:59.919Z,84.70
2018-09-19T15:21:28.212Z,85.20
2018-09-19T15:23:56.481Z,85.90
2018-09-19T15:26:25.005Z,87.70
2018-09-19T15:28:53.403Z,85.60
2018-09-19T15:31:21.724Z,87.00
2018-09-19T15:33:50.018Z,87.10
2018-09-19T15:36:18.307Z,87.50
2018-09-19T15:38:46.606Z,87.10
2018-09-19T15:41:14.885Z,86.30
2018-09-19T15:43:43.161Z,86.40
2018-09-19T15:46:11.433Z,86.80
2018-09-19T15:48:39.708Z,86.70
2018-09-19T15:51:08.020Z,86.50
2018-09-19T15:53:36.313Z,86.50
2018-09-19T15:56:04.606Z,88.00
2018-09-19T15:58:32.876Z,87.60
2018-09-19T16:01:01.162Z,87.60
2018-09-19T16:03:29.483Z,87.30
2018-09-19T16:05:57.866Z,88.30
2018-09-19T16:08:26.073Z,88.10
2018-09-19T16:10:54.358Z,88.90
2018-09-19T16:13:22.645Z,87.70
2018-09-19T16:15:50.949Z,88.50
2018-09-19T16:18:19.209Z,88.60
2018-09-19T16:20:47.482Z,88.90
2018-09-19T16:23:15.767Z,88.20
2018-09-19T16:25:44.053Z,88.40
2018-09-19T16:28:12.335Z,88.60
2018-09-19T16:30:40.614Z,88.20
2018-09-19T16:33:08.880Z,88.30
2018-09-19T16:35:37.249Z,87.90
2018-09-19T16:38:05.808Z,87.90
2018-09-19T16:40:33.952Z,90.80
2018-09-19T16:43:02.241Z,89.20
2018-09-19T16:45:30.568Z,88.80
2018-09-19T16:47:58.812Z,89.20
2018-09-19T16:50:27.123Z,91.30
2018-09-19T16:52:55.748Z,92.60
2018-09-19T16:55:24.004Z,91.00
2018-09-19T16:57:52.409Z,92.20
2018-09-19T17:00:20.702Z,91.40
2018-09-19T17:02:49.000Z,91.70
2018-09-19T17:05:17.313Z,92.50
2018-09-19T17:07:45.624Z,93.50
2018-09-19T17:10:13.997Z,93.10
2018-09-19T17:12:42.289Z,93.10
2018-09-19T17:15:10.596Z,93.30
2018-09-19T17:17:38.897Z,94.00
2018-09-19T17:20:07.240Z,94.10
2018-09-19T17:22:35.595Z,94.60
2018-09-19T17:25:03.905Z,95.10
2018-09-19T17:27:32.196Z,95.60
2018-09-19T17:30:00.472Z,96.10
2018-09-19T17:32:28.784Z,96.30
2018-09-19T17:34:57.112Z,96.90
2018-09-19T17:37:25.556Z,97.10
2018-09-19T17:39:53.789Z,97.40
2018-09-19T17:42:22.090Z,97.90
2018-09-19T17:44:50.394Z,98.20
2018-09-19T17:47:18.675Z,97.00
2018-09-19T17:49:47.014Z,97.10
2018-09-19T17:52:15.276Z,97.00
2018-09-19T17:54:43.559Z,97.90
2018-09-19T17:57:11.870Z,98.50
2018-09-19T17:59:40.172Z,98.80
2018-09-19T18:02:08.466Z,99.40
2018-09-19T18:04:36.929Z,99.00
2018-09-19T18:07:05.381Z,99.20
2018-09-19T18:09:33.681Z,99.50
2018-09-19T18:12:01.952Z,99.80
2018-09-19T18:14:30.248Z,99.90
2018-09-19T18:16:58.705Z,99.60
2018-09-19T18:19:26.977Z,99.70
2018-09-19T18:21:55.262Z,99.80
2018-09-19T18:24:23.549Z,99.90
2018-09-19T18:26:51.838Z,99.90
2018-09-19T18:29:20.136Z,99.90
2018-09-19T18:31:48.405Z,99.90
2018-09-19T18:34:16.700Z,99.90
2018-09-19T18:36:44.977Z,99.90
2018-09-19T18:39:13.277Z,99.90
2018-09-19T18:41:41.630Z,99.90
2018-09-19T18:44:09.905Z,99.90
2018-09-19T18:46:38.184Z,99.90
2018-09-19T18:49:06.472Z,99.90
2018-09-19T18:51:34.757Z,99.90
2018-09-19T18:54:03.102Z,99.90
2018-09-19T18:56:31.385Z,99.90
2018-09-19T18:58:59.726Z,99.90
2018-09-19T19:01:28.000Z,99.90
2018-09-19T19:03:56.274Z,99.90
2018-09-19T19:06:24.556Z,99.90
2018-09-19T19:08:52.853Z,99.90
2018-09-19T19:11:21.260Z,99.90
2018-09-19T19:13:49.545Z,99.90
2018-09-19T19:16:18.108Z,99.90
2018-09-19T19:18:46.408Z,99.90
2018-09-19T19:21:14.745Z,99.90
2018-09-19T19:23:43.051Z,99.90
2018-09-19T19:26:11.325Z,99.90
2018-09-19T19:28:39.642Z,99.90
2018-09-19T19:31:07.927Z,99.90
2018-09-19T19:33:36.244Z,99.90
2018-09-19T19:36:04.536Z,99.90
2018-09-19T19:38:32.828Z,99.90
2018-09-19T19:41:01.113Z,99.90
2018-09-19T19:43:29.409Z,99.90
2018-09-19T19:45:57.696Z,99.90
2018-09-19T19:48:25.980Z,99.90
2018-09-19T19:50:54.272Z,99.90
2018-09-19T19:53:22.612Z,99.90
2018-09-19T19:55:50.848Z,99.90
2018-09-19T19:58:19.129Z,99.90
2018-09-19T20:00:47.415Z,99.90
2018-09-19T20:03:15.733Z,99.90
2018-09-19T20:05:43.984Z,99.90
2018-09-19T20:08:12.253Z,99.90
2018-09-19T20:10:40.625Z,99.90
2018-09-19T20:13:08.819Z,99.90
2018-09-19T20:15:37.084Z,99.90
2018-09-19T20:18:05.369Z,99.90
2018-09-19T20:20:33.641Z,99.90
2018-09-19T20:23:01.913Z,99.90
2018-09-19T20:25:30.182Z,99.90
2018-09-19T20:27:58.501Z,99.90
2018-09-19T20:30:26.774Z,99.90
2018-09-19T20:32:55.052Z,99.90
2018-09-19T20:35:23.313Z,99.90
2018-09-19T20:37:51.721Z,99.90
2018-09-19T20:40:19.985Z,99.90
2018-09-19T20:42:48.289Z,99.90
2018-09-19T20:45:16.583Z,99.90
2018-09-19T20:47:44.877Z,99.90
2018-09-19T20:50:13.164Z,99.90
2018-09-19T20:52:41.443Z,99.90
2018-09-19T20:55:09.697Z,99.90
2018-09-19T20:57:37.965Z,99.90
2018-09-19T21:00:06.266Z,99.90
2018-09-19T21:02:34.544Z,99.90
2018-09-19T21:05:02.845Z,99.90
2018-09-19T21:07:31.124Z,99.90
2018-09-19T21:09:59.387Z,99.90
2018-09-19T21:12:27.645Z,99.90
2018-09-19T21:14:55.904Z,99.90
2018-09-19T21:17:24.200Z,99.90
2018-09-19T21:19:52.505Z,99.90
2018-09-19T21:22:20.919Z,99.90
2018-09-19T21:24:49.141Z,99.90
2018-09-19T21:27:17.421Z,99.90
2018-09-19T21:29:45.722Z,99.90
2018-09-19T21:32:14.066Z,99.90
2018-09-19T21:34:42.309Z,99.90
2018-09-19T21:37:10.603Z,99.90
2018-09-19T21:39:38.889Z,99.90
2018-09-19T21:42:07.180Z,99.90
2018-09-19T21:44:35.469Z,99.90
2018-09-19T21:47:03.781Z,99.90
2018-09-19T21:49:32.057Z,99.90
2018-09-19T21:52:00.349Z,99.90
2018-09-19T21:54:28.632Z,99.90
2018-09-19T21:56:57.011Z,99.90
2018-09-19T21:59:25.290Z,99.90
2018-09-19T22:02:00.497Z,99.90
2018-09-19T22:04:28.909Z,99.90
2018-09-19T22:06:57.245Z,99.90
2018-09-19T22:09:25.537Z,99.90
2018-09-19T22:11:53.834Z,99.90
2018-09-19T22:14:22.120Z,99.90
2018-09-19T22:16:50.401Z,99.90
2018-09-19T22:19:18.704Z,99.90
2018-09-19T22:21:46.992Z,99.90
2018-09-19T22:24:15.299Z,99.90
2018-09-19T22:26:43.577Z,99.90
2018-09-19T22:29:11.878Z,99.90
2018-09-19T22:31:40.160Z,99.90
2018-09-19T22:34:08.451Z,99.90
2018-09-19T22:36:36.732Z,99.90
2018-09-19T22:39:07.224Z,99.90
2018-09-19T22:41:35.562Z,99.90
2018-09-19T22:44:03.873Z,99.90
2018-09-19T22:46:32.194Z,99.90
2018-09-19T22:49:00.480Z,99.90
2018-09-19T22:51:28.781Z,99.90
2018-09-19T22:53:57.097Z,99.90
2018-09-19T22:56:25.377Z,99.90
2018-09-19T22:58:53.660Z,99.90
2018-09-19T23:01:21.956Z,99.90
2018-09-19T23:03:50.261Z,99.90
2018-09-19T23:06:18.537Z,99.90
2018-09-19T23:08:46.873Z,99.90
2018-09-19T23:11:15.184Z,99.90
2018-09-19T23:13:43.468Z,99.90
2018-09-19T23:16:11.766Z,99.90
2018-09-19T23:18:40.040Z,99.90
2018-09-19T23:21:08.333Z,99.90
2018-09-19T23:23:36.694Z,99.90
2018-09-19T23:26:05.058Z,99.90
2018-09-19T23:28:33.353Z,99.90
2018-09-19T23:31:01.673Z,99.90
2018-09-19T23:33:29.951Z,99.90
2018-09-19T23:35:58.245Z,99.90
2018-09-19T23:38:26.561Z,99.90
2018-09-19T23:40:54.849Z,99.90
2018-09-19T23:43:23.145Z,99.90
2018-09-19T23:45:51.569Z,99.90
2018-09-19T23:48:19.857Z,99.90
2018-09-19T23:50:48.192Z,99.90
2018-09-19T23:53:16.561Z,99.90
2018-09-19T23:55:44.856Z,99.90
2018-09-19T23:58:13.148Z,99.90
